sensor_id;sensor_type;location;lat;lon;timestamp;P1;durP1;ratioP1;P2;durP2;ratioP2
39994;SDS011;25686;51.908;10.418;2024-01-25T00:00:42;29.73;;;4.88;;
39994;SDS011;25686;51.908;10.418;2024-01-25T00:02:43;32.70;;;5.13;;
39994;SDS011;25686;51.908;10.418;2024-01-25T00:04:44;33.95;;;4.63;;
39994;SDS011;25686;51.908;10.418;2024-01-25T00:06:45;27.80;;;5.20;;
39994;SDS011;25686;51.908;10.418;2024-01-25T00:08:46;27.95;;;3.95;;
39994;SDS011;25686;51.908;10.418;2024-01-25T00:10:47;25.75;;;4.65;;
39994;SDS011;25686;51.908;10.418;2024-01-25T00:12:49;36.95;;;5.07;;
39994;SDS011;25686;51.908;10.418;2024-01-25T00:14:50;34.40;;;4.68;;
39994;SDS011;25686;51.908;10.418;2024-01-25T00:16:52;29.35;;;4.25;;
39994;SDS011;25686;51.908;10.418;2024-01-25T00:18:53;35.25;;;4.78;;
39994;SDS011;25686;51.908;10.418;2024-01-25T00:20:54;34.33;;;4.47;;
39994;SDS011;25686;51.908;10.418;2024-01-25T00:22:55;28.75;;;4.32;;
39994;SDS011;25686;51.908;10.418;2024-01-25T00:24:57;27.67;;;4.38;;
39994;SDS011;25686;51.908;10.418;2024-01-25T00:26:58;37.40;;;5.47;;
39994;SDS011;25686;51.908;10.418;2024-01-25T00:29:00;36.17;;;4.95;;
39994;SDS011;25686;51.908;10.418;2024-01-25T00:31:01;27.02;;;4.55;;
39994;SDS011;25686;51.908;10.418;2024-01-25T00:33:01;29.88;;;4.53;;
39994;SDS011;25686;51.908;10.418;2024-01-25T00:35:03;33.10;;;5.20;;
39994;SDS011;25686;51.908;10.418;2024-01-25T00:37:04;29.35;;;4.38;;
39994;SDS011;25686;51.908;10.418;2024-01-25T00:39:05;35.22;;;4.28;;
39994;SDS011;25686;51.908;10.418;2024-01-25T00:41:06;36.58;;;4.72;;
39994;SDS011;25686;51.908;10.418;2024-01-25T00:43:09;30.77;;;4.68;;
39994;SDS011;25686;51.908;10.418;2024-01-25T00:45:11;38.70;;;5.22;;
39994;SDS011;25686;51.908;10.418;2024-01-25T00:47:12;26.60;;;4.13;;
39994;SDS011;25686;51.908;10.418;2024-01-25T00:49:13;30.88;;;4.63;;
39994;SDS011;25686;51.908;10.418;2024-01-25T00:51:15;32.45;;;4.60;;
39994;SDS011;25686;51.908;10.418;2024-01-25T00:53:16;30.20;;;4.57;;
39994;SDS011;25686;51.908;10.418;2024-01-25T00:55:17;41.70;;;5.38;;
39994;SDS011;25686;51.908;10.418;2024-01-25T00:57:19;32.33;;;4.65;;
39994;SDS011;25686;51.908;10.418;2024-01-25T00:59:20;38.25;;;4.57;;
39994;SDS011;25686;51.908;10.418;2024-01-25T01:01:21;28.58;;;4.35;;
39994;SDS011;25686;51.908;10.418;2024-01-25T01:03:23;28.17;;;4.47;;
39994;SDS011;25686;51.908;10.418;2024-01-25T01:05:24;34.72;;;4.90;;
39994;SDS011;25686;51.908;10.418;2024-01-25T01:07:26;31.30;;;4.90;;
39994;SDS011;25686;51.908;10.418;2024-01-25T01:09:27;25.95;;;4.82;;
39994;SDS011;25686;51.908;10.418;2024-01-25T01:11:28;26.73;;;4.38;;
39994;SDS011;25686;51.908;10.418;2024-01-25T01:13:29;32.03;;;4.57;;
39994;SDS011;25686;51.908;10.418;2024-01-25T01:15:30;38.80;;;4.72;;
39994;SDS011;25686;51.908;10.418;2024-01-25T01:17:31;36.47;;;6.03;;
39994;SDS011;25686;51.908;10.418;2024-01-25T01:19:32;31.13;;;5.13;;
39994;SDS011;25686;51.908;10.418;2024-01-25T01:21:33;36.83;;;5.28;;
39994;SDS011;25686;51.908;10.418;2024-01-25T01:23:35;27.20;;;4.35;;
39994;SDS011;25686;51.908;10.418;2024-01-25T01:25:36;37.28;;;4.78;;
39994;SDS011;25686;51.908;10.418;2024-01-25T01:27:37;29.23;;;4.43;;
39994;SDS011;25686;51.908;10.418;2024-01-25T01:29:40;32.90;;;5.38;;
39994;SDS011;25686;51.908;10.418;2024-01-25T01:31:41;27.35;;;4.80;;
39994;SDS011;25686;51.908;10.418;2024-01-25T01:33:42;33.40;;;5.72;;
39994;SDS011;25686;51.908;10.418;2024-01-25T01:35:43;29.38;;;4.65;;
39994;SDS011;25686;51.908;10.418;2024-01-25T01:37:44;32.22;;;5.05;;
39994;SDS011;25686;51.908;10.418;2024-01-25T01:39:45;34.70;;;4.75;;
39994;SDS011;25686;51.908;10.418;2024-01-25T01:41:49;31.92;;;5.15;;
39994;SDS011;25686;51.908;10.418;2024-01-25T01:43:53;27.35;;;3.80;;
39994;SDS011;25686;51.908;10.418;2024-01-25T01:45:54;32.15;;;5.47;;
39994;SDS011;25686;51.908;10.418;2024-01-25T01:47:59;30.10;;;4.93;;
39994;SDS011;25686;51.908;10.418;2024-01-25T01:50:01;31.13;;;4.85;;
39994;SDS011;25686;51.908;10.418;2024-01-25T01:52:02;31.67;;;4.10;;
39994;SDS011;25686;51.908;10.418;2024-01-25T01:54:05;30.52;;;4.72;;
39994;SDS011;25686;51.908;10.418;2024-01-25T01:56:06;32.47;;;4.78;;
39994;SDS011;25686;51.908;10.418;2024-01-25T01:58:08;32.55;;;4.90;;
39994;SDS011;25686;51.908;10.418;2024-01-25T02:00:09;33.03;;;4.53;;
39994;SDS011;25686;51.908;10.418;2024-01-25T02:02:10;32.33;;;5.13;;
39994;SDS011;25686;51.908;10.418;2024-01-25T02:04:11;42.67;;;5.20;;
39994;SDS011;25686;51.908;10.418;2024-01-25T02:06:12;33.80;;;4.53;;
39994;SDS011;25686;51.908;10.418;2024-01-25T02:08:13;37.60;;;5.00;;
39994;SDS011;25686;51.908;10.418;2024-01-25T02:10:15;33.67;;;4.82;;
39994;SDS011;25686;51.908;10.418;2024-01-25T02:12:16;31.67;;;4.88;;
39994;SDS011;25686;51.908;10.418;2024-01-25T02:14:17;32.20;;;4.97;;
39994;SDS011;25686;51.908;10.418;2024-01-25T02:16:18;35.17;;;5.57;;
39994;SDS011;25686;51.908;10.418;2024-01-25T02:18:19;30.15;;;4.03;;
39994;SDS011;25686;51.908;10.418;2024-01-25T02:20:20;28.08;;;4.72;;
39994;SDS011;25686;51.908;10.418;2024-01-25T02:22:21;36.60;;;4.78;;
39994;SDS011;25686;51.908;10.418;2024-01-25T02:24:22;26.55;;;5.35;;
39994;SDS011;25686;51.908;10.418;2024-01-25T02:26:24;28.67;;;4.85;;
39994;SDS011;25686;51.908;10.418;2024-01-25T02:28:25;24.45;;;4.47;;
39994;SDS011;25686;51.908;10.418;2024-01-25T02:30:26;31.25;;;4.60;;
39994;SDS011;25686;51.908;10.418;2024-01-25T02:32:27;28.05;;;5.15;;
39994;SDS011;25686;51.908;10.418;2024-01-25T02:34:28;32.47;;;4.70;;
39994;SDS011;25686;51.908;10.418;2024-01-25T02:36:29;33.63;;;5.40;;
39994;SDS011;25686;51.908;10.418;2024-01-25T02:38:30;34.83;;;4.93;;
39994;SDS011;25686;51.908;10.418;2024-01-25T02:40:31;29.83;;;4.55;;
39994;SDS011;25686;51.908;10.418;2024-01-25T02:42:32;40.63;;;5.78;;
39994;SDS011;25686;51.908;10.418;2024-01-25T02:44:33;37.58;;;4.70;;
39994;SDS011;25686;51.908;10.418;2024-01-25T02:46:33;38.58;;;4.75;;
39994;SDS011;25686;51.908;10.418;2024-01-25T02:48:35;30.35;;;4.22;;
39994;SDS011;25686;51.908;10.418;2024-01-25T02:50:35;34.63;;;4.97;;
39994;SDS011;25686;51.908;10.418;2024-01-25T02:52:36;26.00;;;3.72;;
39994;SDS011;25686;51.908;10.418;2024-01-25T02:54:37;26.45;;;3.70;;
39994;SDS011;25686;51.908;10.418;2024-01-25T02:56:38;29.25;;;4.65;;
39994;SDS011;25686;51.908;10.418;2024-01-25T02:58:39;32.55;;;4.88;;
39994;SDS011;25686;51.908;10.418;2024-01-25T03:00:40;32.67;;;4.85;;
39994;SDS011;25686;51.908;10.418;2024-01-25T03:02:42;31.33;;;3.58;;
39994;SDS011;25686;51.908;10.418;2024-01-25T03:04:43;28.75;;;4.10;;
39994;SDS011;25686;51.908;10.418;2024-01-25T03:06:44;25.95;;;4.05;;
39994;SDS011;25686;51.908;10.418;2024-01-25T03:08:45;33.13;;;3.83;;
39994;SDS011;25686;51.908;10.418;2024-01-25T03:10:46;30.23;;;4.28;;
39994;SDS011;25686;51.908;10.418;2024-01-25T03:12:50;32.38;;;4.55;;
39994;SDS011;25686;51.908;10.418;2024-01-25T03:14:51;28.42;;;4.30;;
39994;SDS011;25686;51.908;10.418;2024-01-25T03:16:52;31.08;;;3.80;;
39994;SDS011;25686;51.908;10.418;2024-01-25T03:18:53;38.65;;;4.30;;
39994;SDS011;25686;51.908;10.418;2024-01-25T03:20:54;26.85;;;4.10;;
39994;SDS011;25686;51.908;10.418;2024-01-25T03:22:55;31.15;;;5.32;;
39994;SDS011;25686;51.908;10.418;2024-01-25T03:24:56;26.90;;;3.85;;
39994;SDS011;25686;51.908;10.418;2024-01-25T03:26:57;22.45;;;4.20;;
39994;SDS011;25686;51.908;10.418;2024-01-25T03:28:58;35.92;;;4.20;;
39994;SDS011;25686;51.908;10.418;2024-01-25T03:30:59;25.05;;;4.05;;
39994;SDS011;25686;51.908;10.418;2024-01-25T03:33:00;29.23;;;3.65;;
39994;SDS011;25686;51.908;10.418;2024-01-25T03:35:01;22.63;;;3.90;;
39994;SDS011;25686;51.908;10.418;2024-01-25T03:37:02;27.10;;;4.40;;
39994;SDS011;25686;51.908;10.418;2024-01-25T03:39:03;28.00;;;3.40;;
39994;SDS011;25686;51.908;10.418;2024-01-25T03:41:04;37.00;;;4.32;;
39994;SDS011;25686;51.908;10.418;2024-01-25T03:43:05;27.95;;;3.78;;
39994;SDS011;25686;51.908;10.418;2024-01-25T03:45:06;26.67;;;3.67;;
39994;SDS011;25686;51.908;10.418;2024-01-25T03:47:07;25.77;;;3.80;;
39994;SDS011;25686;51.908;10.418;2024-01-25T03:49:08;28.27;;;3.67;;
39994;SDS011;25686;51.908;10.418;2024-01-25T03:51:09;27.92;;;4.38;;
39994;SDS011;25686;51.908;10.418;2024-01-25T03:53:10;19.83;;;3.60;;
39994;SDS011;25686;51.908;10.418;2024-01-25T03:55:11;35.08;;;5.85;;
39994;SDS011;25686;51.908;10.418;2024-01-25T03:57:12;26.52;;;3.70;;
39994;SDS011;25686;51.908;10.418;2024-01-25T03:59:13;24.65;;;3.33;;
39994;SDS011;25686;51.908;10.418;2024-01-25T04:01:14;21.55;;;3.78;;
39994;SDS011;25686;51.908;10.418;2024-01-25T04:03:15;19.20;;;3.33;;
39994;SDS011;25686;51.908;10.418;2024-01-25T04:05:16;28.33;;;4.25;;
39994;SDS011;25686;51.908;10.418;2024-01-25T04:07:17;28.65;;;3.70;;
39994;SDS011;25686;51.908;10.418;2024-01-25T04:09:18;24.20;;;3.70;;
39994;SDS011;25686;51.908;10.418;2024-01-25T04:11:19;25.33;;;3.50;;
39994;SDS011;25686;51.908;10.418;2024-01-25T04:13:20;23.60;;;4.10;;
39994;SDS011;25686;51.908;10.418;2024-01-25T04:15:21;27.63;;;3.20;;
39994;SDS011;25686;51.908;10.418;2024-01-25T04:17:22;22.65;;;3.75;;
39994;SDS011;25686;51.908;10.418;2024-01-25T04:19:23;22.75;;;4.03;;
39994;SDS011;25686;51.908;10.418;2024-01-25T04:21:24;24.98;;;3.28;;
39994;SDS011;25686;51.908;10.418;2024-01-25T04:23:25;32.92;;;4.20;;
39994;SDS011;25686;51.908;10.418;2024-01-25T04:25:26;32.13;;;3.92;;
39994;SDS011;25686;51.908;10.418;2024-01-25T04:27:27;29.08;;;3.70;;
39994;SDS011;25686;51.908;10.418;2024-01-25T04:29:28;26.67;;;4.13;;
39994;SDS011;25686;51.908;10.418;2024-01-25T04:31:29;29.20;;;4.03;;
39994;SDS011;25686;51.908;10.418;2024-01-25T04:33:30;25.50;;;3.70;;
39994;SDS011;25686;51.908;10.418;2024-01-25T04:35:31;22.40;;;4.32;;
39994;SDS011;25686;51.908;10.418;2024-01-25T04:37:32;27.38;;;3.47;;
39994;SDS011;25686;51.908;10.418;2024-01-25T04:39:34;23.15;;;3.47;;
39994;SDS011;25686;51.908;10.418;2024-01-25T04:41:35;28.15;;;3.33;;
39994;SDS011;25686;51.908;10.418;2024-01-25T04:43:36;29.85;;;3.70;;
39994;SDS011;25686;51.908;10.418;2024-01-25T04:45:37;26.33;;;3.53;;
39994;SDS011;25686;51.908;10.418;2024-01-25T04:47:38;24.67;;;3.50;;
39994;SDS011;25686;51.908;10.418;2024-01-25T04:49:40;28.50;;;3.47;;
39994;SDS011;25686;51.908;10.418;2024-01-25T04:51:41;21.02;;;3.63;;
39994;SDS011;25686;51.908;10.418;2024-01-25T04:53:42;24.17;;;3.67;;
39994;SDS011;25686;51.908;10.418;2024-01-25T04:55:43;24.83;;;3.40;;
39994;SDS011;25686;51.908;10.418;2024-01-25T04:57:44;25.42;;;3.80;;
39994;SDS011;25686;51.908;10.418;2024-01-25T04:59:45;25.58;;;3.53;;
39994;SDS011;25686;51.908;10.418;2024-01-25T05:01:46;23.15;;;3.90;;
39994;SDS011;25686;51.908;10.418;2024-01-25T05:03:47;28.88;;;3.67;;
39994;SDS011;25686;51.908;10.418;2024-01-25T05:05:48;25.63;;;3.35;;
39994;SDS011;25686;51.908;10.418;2024-01-25T05:07:49;23.08;;;3.10;;
39994;SDS011;25686;51.908;10.418;2024-01-25T05:09:50;21.98;;;3.47;;
39994;SDS011;25686;51.908;10.418;2024-01-25T05:11:51;29.73;;;3.97;;
39994;SDS011;25686;51.908;10.418;2024-01-25T05:13:52;25.48;;;3.63;;
39994;SDS011;25686;51.908;10.418;2024-01-25T05:15:53;29.13;;;3.90;;
39994;SDS011;25686;51.908;10.418;2024-01-25T05:17:54;27.63;;;3.85;;
39994;SDS011;25686;51.908;10.418;2024-01-25T05:19:55;20.58;;;3.67;;
39994;SDS011;25686;51.908;10.418;2024-01-25T05:21:56;15.57;;;3.65;;
39994;SDS011;25686;51.908;10.418;2024-01-25T05:23:57;24.85;;;3.22;;
39994;SDS011;25686;51.908;10.418;2024-01-25T05:25:58;21.83;;;3.20;;
39994;SDS011;25686;51.908;10.418;2024-01-25T05:27:59;22.50;;;3.15;;
39994;SDS011;25686;51.908;10.418;2024-01-25T05:30:00;19.63;;;4.03;;
39994;SDS011;25686;51.908;10.418;2024-01-25T05:32:01;25.08;;;3.80;;
39994;SDS011;25686;51.908;10.418;2024-01-25T05:34:02;26.00;;;3.95;;
39994;SDS011;25686;51.908;10.418;2024-01-25T05:36:03;19.70;;;3.47;;
39994;SDS011;25686;51.908;10.418;2024-01-25T05:38:05;25.50;;;3.15;;
39994;SDS011;25686;51.908;10.418;2024-01-25T05:40:06;24.60;;;3.65;;
39994;SDS011;25686;51.908;10.418;2024-01-25T05:42:09;27.92;;;3.50;;
39994;SDS011;25686;51.908;10.418;2024-01-25T05:44:12;25.75;;;3.65;;
39994;SDS011;25686;51.908;10.418;2024-01-25T05:46:13;31.05;;;4.10;;
39994;SDS011;25686;51.908;10.418;2024-01-25T05:48:14;21.92;;;2.92;;
39994;SDS011;25686;51.908;10.418;2024-01-25T05:50:15;22.48;;;3.42;;
39994;SDS011;25686;51.908;10.418;2024-01-25T05:52:16;23.15;;;3.22;;
39994;SDS011;25686;51.908;10.418;2024-01-25T05:54:17;17.30;;;3.22;;
39994;SDS011;25686;51.908;10.418;2024-01-25T05:56:18;24.95;;;3.30;;
39994;SDS011;25686;51.908;10.418;2024-01-25T05:58:18;24.90;;;3.70;;
39994;SDS011;25686;51.908;10.418;2024-01-25T06:00:19;19.98;;;3.30;;
39994;SDS011;25686;51.908;10.418;2024-01-25T06:02:20;20.50;;;3.15;;
39994;SDS011;25686;51.908;10.418;2024-01-25T06:04:21;18.50;;;3.13;;
39994;SDS011;25686;51.908;10.418;2024-01-25T06:06:22;19.27;;;3.08;;
39994;SDS011;25686;51.908;10.418;2024-01-25T06:08:23;26.17;;;3.60;;
39994;SDS011;25686;51.908;10.418;2024-01-25T06:10:24;26.35;;;3.22;;
39994;SDS011;25686;51.908;10.418;2024-01-25T06:12:25;24.23;;;3.22;;
39994;SDS011;25686;51.908;10.418;2024-01-25T06:14:26;22.65;;;3.08;;
39994;SDS011;25686;51.908;10.418;2024-01-25T06:16:27;26.38;;;3.10;;
39994;SDS011;25686;51.908;10.418;2024-01-25T06:18:28;20.92;;;3.17;;
39994;SDS011;25686;51.908;10.418;2024-01-25T06:20:29;22.88;;;3.65;;
39994;SDS011;25686;51.908;10.418;2024-01-25T06:22:30;23.67;;;3.22;;
39994;SDS011;25686;51.908;10.418;2024-01-25T06:24:31;21.33;;;3.75;;
39994;SDS011;25686;51.908;10.418;2024-01-25T06:26:32;20.50;;;3.60;;
39994;SDS011;25686;51.908;10.418;2024-01-25T06:28:33;26.15;;;3.10;;
39994;SDS011;25686;51.908;10.418;2024-01-25T06:30:34;27.35;;;3.90;;
39994;SDS011;25686;51.908;10.418;2024-01-25T06:32:35;25.90;;;3.93;;
39994;SDS011;25686;51.908;10.418;2024-01-25T06:34:37;23.90;;;3.47;;
39994;SDS011;25686;51.908;10.418;2024-01-25T06:36:38;22.70;;;3.40;;
39994;SDS011;25686;51.908;10.418;2024-01-25T06:38:39;28.35;;;3.80;;
39994;SDS011;25686;51.908;10.418;2024-01-25T06:40:40;24.60;;;3.35;;
39994;SDS011;25686;51.908;10.418;2024-01-25T06:42:41;21.98;;;2.95;;
39994;SDS011;25686;51.908;10.418;2024-01-25T06:44:42;17.57;;;2.60;;
39994;SDS011;25686;51.908;10.418;2024-01-25T06:46:44;31.08;;;3.80;;
39994;SDS011;25686;51.908;10.418;2024-01-25T06:48:45;24.13;;;3.22;;
39994;SDS011;25686;51.908;10.418;2024-01-25T06:50:46;30.67;;;4.05;;
39994;SDS011;25686;51.908;10.418;2024-01-25T06:52:47;26.38;;;4.18;;
39994;SDS011;25686;51.908;10.418;2024-01-25T06:54:48;25.13;;;3.85;;
39994;SDS011;25686;51.908;10.418;2024-01-25T06:56:49;21.75;;;3.15;;
39994;SDS011;25686;51.908;10.418;2024-01-25T06:58:51;25.20;;;3.08;;
39994;SDS011;25686;51.908;10.418;2024-01-25T07:00:52;21.60;;;3.53;;
39994;SDS011;25686;51.908;10.418;2024-01-25T07:02:53;25.25;;;3.22;;
39994;SDS011;25686;51.908;10.418;2024-01-25T07:04:54;28.70;;;4.13;;
39994;SDS011;25686;51.908;10.418;2024-01-25T07:06:55;27.70;;;4.25;;
39994;SDS011;25686;51.908;10.418;2024-01-25T07:08:56;24.83;;;3.38;;
39994;SDS011;25686;51.908;10.418;2024-01-25T07:10:57;22.55;;;3.60;;
39994;SDS011;25686;51.908;10.418;2024-01-25T07:13:01;28.95;;;3.55;;
39994;SDS011;25686;51.908;10.418;2024-01-25T07:15:02;18.92;;;3.05;;
39994;SDS011;25686;51.908;10.418;2024-01-25T07:17:03;21.77;;;2.83;;
39994;SDS011;25686;51.908;10.418;2024-01-25T07:19:04;30.00;;;4.10;;
39994;SDS011;25686;51.908;10.418;2024-01-25T07:21:05;25.45;;;4.25;;
39994;SDS011;25686;51.908;10.418;2024-01-25T07:23:06;16.95;;;3.90;;
39994;SDS011;25686;51.908;10.418;2024-01-25T07:25:07;22.05;;;3.22;;
39994;SDS011;25686;51.908;10.418;2024-01-25T07:27:08;20.05;;;3.30;;
39994;SDS011;25686;51.908;10.418;2024-01-25T07:29:12;24.08;;;3.70;;
39994;SDS011;25686;51.908;10.418;2024-01-25T07:31:13;29.13;;;3.78;;
39994;SDS011;25686;51.908;10.418;2024-01-25T07:33:14;30.77;;;3.83;;
39994;SDS011;25686;51.908;10.418;2024-01-25T07:35:16;25.67;;;3.47;;
39994;SDS011;25686;51.908;10.418;2024-01-25T07:37:17;26.27;;;3.58;;
39994;SDS011;25686;51.908;10.418;2024-01-25T07:39:18;19.35;;;3.45;;
39994;SDS011;25686;51.908;10.418;2024-01-25T07:41:19;22.42;;;3.00;;
39994;SDS011;25686;51.908;10.418;2024-01-25T07:43:20;22.10;;;3.30;;
39994;SDS011;25686;51.908;10.418;2024-01-25T07:45:21;21.75;;;3.28;;
39994;SDS011;25686;51.908;10.418;2024-01-25T07:47:22;22.23;;;3.10;;
39994;SDS011;25686;51.908;10.418;2024-01-25T07:49:23;24.65;;;3.13;;
39994;SDS011;25686;51.908;10.418;2024-01-25T07:51:24;19.20;;;3.40;;
39994;SDS011;25686;51.908;10.418;2024-01-25T07:53:28;20.75;;;2.83;;
39994;SDS011;25686;51.908;10.418;2024-01-25T07:55:29;28.63;;;3.47;;
39994;SDS011;25686;51.908;10.418;2024-01-25T07:57:30;32.00;;;3.28;;
39994;SDS011;25686;51.908;10.418;2024-01-25T07:59:31;26.52;;;3.33;;
39994;SDS011;25686;51.908;10.418;2024-01-25T08:01:32;28.50;;;3.83;;
39994;SDS011;25686;51.908;10.418;2024-01-25T08:03:33;29.20;;;4.32;;
39994;SDS011;25686;51.908;10.418;2024-01-25T08:05:34;26.35;;;3.78;;
39994;SDS011;25686;51.908;10.418;2024-01-25T08:07:35;19.33;;;3.00;;
39994;SDS011;25686;51.908;10.418;2024-01-25T08:09:37;18.70;;;3.58;;
39994;SDS011;25686;51.908;10.418;2024-01-25T08:11:38;22.58;;;3.20;;
39994;SDS011;25686;51.908;10.418;2024-01-25T08:13:42;22.52;;;3.55;;
39994;SDS011;25686;51.908;10.418;2024-01-25T08:15:43;26.80;;;3.65;;
39994;SDS011;25686;51.908;10.418;2024-01-25T08:17:44;24.70;;;3.35;;
39994;SDS011;25686;51.908;10.418;2024-01-25T08:19:45;19.55;;;2.83;;
39994;SDS011;25686;51.908;10.418;2024-01-25T08:21:46;20.73;;;3.95;;
39994;SDS011;25686;51.908;10.418;2024-01-25T08:23:47;23.25;;;3.58;;
39994;SDS011;25686;51.908;10.418;2024-01-25T08:25:48;22.15;;;3.58;;
39994;SDS011;25686;51.908;10.418;2024-01-25T08:27:49;21.30;;;3.72;;
39994;SDS011;25686;51.908;10.418;2024-01-25T08:29:50;16.80;;;3.28;;
39994;SDS011;25686;51.908;10.418;2024-01-25T08:31:51;19.98;;;3.65;;
39994;SDS011;25686;51.908;10.418;2024-01-25T08:33:52;21.95;;;3.80;;
39994;SDS011;25686;51.908;10.418;2024-01-25T08:35:53;27.02;;;3.38;;
39994;SDS011;25686;51.908;10.418;2024-01-25T08:37:54;28.27;;;4.32;;
39994;SDS011;25686;51.908;10.418;2024-01-25T08:39:55;23.15;;;3.05;;
39994;SDS011;25686;51.908;10.418;2024-01-25T08:41:56;22.23;;;3.95;;
39994;SDS011;25686;51.908;10.418;2024-01-25T08:44:00;22.27;;;3.70;;
39994;SDS011;25686;51.908;10.418;2024-01-25T08:46:01;21.08;;;3.83;;
39994;SDS011;25686;51.908;10.418;2024-01-25T08:48:02;24.70;;;3.72;;
39994;SDS011;25686;51.908;10.418;2024-01-25T08:50:03;22.35;;;3.83;;
39994;SDS011;25686;51.908;10.418;2024-01-25T08:52:08;28.48;;;4.28;;
39994;SDS011;25686;51.908;10.418;2024-01-25T08:54:09;26.98;;;3.55;;
39994;SDS011;25686;51.908;10.418;2024-01-25T08:56:10;21.95;;;3.88;;
39994;SDS011;25686;51.908;10.418;2024-01-25T08:58:11;17.10;;;3.47;;
39994;SDS011;25686;51.908;10.418;2024-01-25T09:00:12;19.48;;;3.47;;
39994;SDS011;25686;51.908;10.418;2024-01-25T09:02:14;22.40;;;3.55;;
39994;SDS011;25686;51.908;10.418;2024-01-25T09:04:15;23.85;;;3.78;;
39994;SDS011;25686;51.908;10.418;2024-01-25T09:06:16;19.10;;;3.15;;
39994;SDS011;25686;51.908;10.418;2024-01-25T09:08:17;18.75;;;3.40;;
39994;SDS011;25686;51.908;10.418;2024-01-25T09:10:18;20.85;;;3.65;;
39994;SDS011;25686;51.908;10.418;2024-01-25T09:12:19;19.60;;;2.88;;
39994;SDS011;25686;51.908;10.418;2024-01-25T09:14:20;16.90;;;3.30;;
39994;SDS011;25686;51.908;10.418;2024-01-25T09:16:21;20.50;;;2.63;;
39994;SDS011;25686;51.908;10.418;2024-01-25T09:18:22;14.27;;;2.78;;
39994;SDS011;25686;51.908;10.418;2024-01-25T09:20:23;15.05;;;3.20;;
39994;SDS011;25686;51.908;10.418;2024-01-25T09:22:25;14.35;;;2.92;;
39994;SDS011;25686;51.908;10.418;2024-01-25T09:24:26;17.60;;;3.08;;
39994;SDS011;25686;51.908;10.418;2024-01-25T09:26:27;19.17;;;3.85;;
39994;SDS011;25686;51.908;10.418;2024-01-25T09:28:28;20.50;;;3.42;;
39994;SDS011;25686;51.908;10.418;2024-01-25T09:30:29;18.88;;;3.22;;
39994;SDS011;25686;51.908;10.418;2024-01-25T09:32:30;18.52;;;3.65;;
39994;SDS011;25686;51.908;10.418;2024-01-25T09:34:31;20.33;;;3.10;;
39994;SDS011;25686;51.908;10.418;2024-01-25T09:36:32;17.00;;;3.58;;
39994;SDS011;25686;51.908;10.418;2024-01-25T09:38:33;22.83;;;3.38;;
39994;SDS011;25686;51.908;10.418;2024-01-25T09:40:34;16.25;;;2.65;;
39994;SDS011;25686;51.908;10.418;2024-01-25T09:42:36;17.40;;;3.10;;
39994;SDS011;25686;51.908;10.418;2024-01-25T09:44:37;24.52;;;3.40;;
39994;SDS011;25686;51.908;10.418;2024-01-25T09:46:38;27.10;;;3.47;;
39994;SDS011;25686;51.908;10.418;2024-01-25T09:48:41;22.00;;;3.10;;
39994;SDS011;25686;51.908;10.418;2024-01-25T09:50:45;16.50;;;3.70;;
39994;SDS011;25686;51.908;10.418;2024-01-25T09:52:54;20.33;;;2.92;;
39994;SDS011;25686;51.908;10.418;2024-01-25T09:54:56;12.82;;;2.63;;
39994;SDS011;25686;51.908;10.418;2024-01-25T09:56:57;15.68;;;2.95;;
39994;SDS011;25686;51.908;10.418;2024-01-25T09:58:58;17.52;;;2.78;;
39994;SDS011;25686;51.908;10.418;2024-01-25T10:01:00;18.33;;;3.05;;
39994;SDS011;25686;51.908;10.418;2024-01-25T10:03:01;19.13;;;3.63;;
39994;SDS011;25686;51.908;10.418;2024-01-25T10:05:02;16.77;;;2.95;;
39994;SDS011;25686;51.908;10.418;2024-01-25T10:07:03;18.90;;;3.30;;
39994;SDS011;25686;51.908;10.418;2024-01-25T10:09:04;21.52;;;2.95;;
39994;SDS011;25686;51.908;10.418;2024-01-25T10:11:06;16.45;;;3.13;;
39994;SDS011;25686;51.908;10.418;2024-01-25T10:13:14;21.33;;;3.33;;
39994;SDS011;25686;51.908;10.418;2024-01-25T10:15:15;21.60;;;3.75;;
39994;SDS011;25686;51.908;10.418;2024-01-25T10:17:16;17.75;;;3.10;;
39994;SDS011;25686;51.908;10.418;2024-01-25T10:19:17;19.38;;;3.10;;
39994;SDS011;25686;51.908;10.418;2024-01-25T10:21:19;20.58;;;3.17;;
39994;SDS011;25686;51.908;10.418;2024-01-25T10:23:21;21.38;;;3.42;;
39994;SDS011;25686;51.908;10.418;2024-01-25T10:25:22;22.10;;;3.13;;
39994;SDS011;25686;51.908;10.418;2024-01-25T10:27:23;19.73;;;2.80;;
39994;SDS011;25686;51.908;10.418;2024-01-25T10:29:25;19.77;;;3.00;;
39994;SDS011;25686;51.908;10.418;2024-01-25T10:31:26;16.52;;;3.28;;
39994;SDS011;25686;51.908;10.418;2024-01-25T10:33:28;19.50;;;2.92;;
39994;SDS011;25686;51.908;10.418;2024-01-25T10:35:29;21.42;;;3.13;;
39994;SDS011;25686;51.908;10.418;2024-01-25T10:37:30;19.95;;;3.33;;
39994;SDS011;25686;51.908;10.418;2024-01-25T10:39:32;22.65;;;3.83;;
39994;SDS011;25686;51.908;10.418;2024-01-25T10:41:34;19.95;;;3.10;;
39994;SDS011;25686;51.908;10.418;2024-01-25T10:43:35;20.13;;;3.65;;
39994;SDS011;25686;51.908;10.418;2024-01-25T10:45:36;21.45;;;3.60;;
39994;SDS011;25686;51.908;10.418;2024-01-25T10:47:37;20.42;;;3.30;;
39994;SDS011;25686;51.908;10.418;2024-01-25T10:49:40;23.60;;;3.45;;
39994;SDS011;25686;51.908;10.418;2024-01-25T10:51:41;20.45;;;3.00;;
39994;SDS011;25686;51.908;10.418;2024-01-25T10:53:42;18.90;;;3.22;;
39994;SDS011;25686;51.908;10.418;2024-01-25T10:55:44;20.98;;;2.85;;
39994;SDS011;25686;51.908;10.418;2024-01-25T10:57:45;22.05;;;3.40;;
39994;SDS011;25686;51.908;10.418;2024-01-25T10:59:47;23.23;;;3.35;;
39994;SDS011;25686;51.908;10.418;2024-01-25T11:01:48;22.02;;;3.10;;
39994;SDS011;25686;51.908;10.418;2024-01-25T11:03:49;24.40;;;3.25;;
39994;SDS011;25686;51.908;10.418;2024-01-25T11:05:50;27.15;;;3.47;;
39994;SDS011;25686;51.908;10.418;2024-01-25T11:07:52;18.80;;;3.33;;
39994;SDS011;25686;51.908;10.418;2024-01-25T11:09:53;14.88;;;2.95;;
39994;SDS011;25686;51.908;10.418;2024-01-25T11:11:54;20.98;;;2.97;;
39994;SDS011;25686;51.908;10.418;2024-01-25T11:13:55;21.70;;;2.92;;
39994;SDS011;25686;51.908;10.418;2024-01-25T11:15:57;20.02;;;3.28;;
39994;SDS011;25686;51.908;10.418;2024-01-25T11:17:58;17.38;;;3.55;;
39994;SDS011;25686;51.908;10.418;2024-01-25T11:20:02;13.60;;;2.70;;
39994;SDS011;25686;51.908;10.418;2024-01-25T11:22:03;20.85;;;2.75;;
39994;SDS011;25686;51.908;10.418;2024-01-25T11:24:04;13.75;;;3.00;;
39994;SDS011;25686;51.908;10.418;2024-01-25T11:26:06;13.10;;;2.92;;
39994;SDS011;25686;51.908;10.418;2024-01-25T11:28:09;17.83;;;3.15;;
39994;SDS011;25686;51.908;10.418;2024-01-25T11:30:10;22.30;;;3.15;;
39994;SDS011;25686;51.908;10.418;2024-01-25T11:32:11;17.17;;;2.70;;
39994;SDS011;25686;51.908;10.418;2024-01-25T11:34:13;24.27;;;3.50;;
39994;SDS011;25686;51.908;10.418;2024-01-25T11:36:15;19.88;;;3.30;;
39994;SDS011;25686;51.908;10.418;2024-01-25T11:38:16;19.73;;;3.08;;
39994;SDS011;25686;51.908;10.418;2024-01-25T11:40:17;17.73;;;2.55;;
39994;SDS011;25686;51.908;10.418;2024-01-25T11:42:18;17.50;;;2.63;;
39994;SDS011;25686;51.908;10.418;2024-01-25T11:44:19;16.90;;;2.85;;
39994;SDS011;25686;51.908;10.418;2024-01-25T11:46:23;14.50;;;2.30;;
39994;SDS011;25686;51.908;10.418;2024-01-25T11:48:27;21.63;;;3.55;;